Patricia Ann — WDE2845 — position and weather

sailwx.info

Track history (hours):
 
Tides and Currents Weather Stations Pressure Air Temp Water Temp Dewpoint Dewpoint Depression Visibility Wind Speed Wind Dir Waves Ship Positions

Patricia Ann

Owner: AmNav Maritime Corporation, Oakland, CA. More information available from US FCC via Universal Licensing System and Coast Guard Vessel Documentation Center.

Last reported at 2018-Jun-18 05:28 UTC. Time now 2018-Jun-18 05:34 UTC.
Position N 37°49' W 122°19'.

Length 24 m; draft 4.9 m.

Type: Tug. MMSI: 367330510.

Date/timePositionNaut miles runAvg speedWind from/ knotsBaromVisibWave heightAir tempDewpointWater temp
2018-Jun-18 05:28N 37°49' W 122°19'0 0.0
2018-Jun-18 05:00N 37°49' W 122°19'0 0.0
2018-Jun-18 04:30N 37°49' W 122°19'0 0.0
2018-Jun-18 03:59N 37°49' W 122°19'0 0.0
2018-Jun-18 03:30N 37°49' W 122°19'0 0.0
2018-Jun-18 03:00N 37°49' W 122°19'0 0.0
2018-Jun-18 02:30N 37°49' W 122°19'0 0.0
2018-Jun-18 02:00N 37°49' W 122°19'2 4.1
2018-Jun-18 01:30N 37°49' W 122°21'5 9.3
2018-Jun-18 01:00N 37°53' W 122°25'2 3.1
2018-Jun-18 00:31N 37°54' W 122°24'2 3.6
2018-Jun-18 00:00N 37°54' W 122°22'1 1.4
2018-Jun-17 23:30N 37°54' W 122°23'4 8.0
2018-Jun-17 22:59N 37°57' W 122°26'7 8.7
2018-Jun-17 22:08N 38°03' W 122°19'1 9.0
2018-Jun-17 22:00N 38°03' W 122°18'0 0.0
2018-Jun-17 07:40N 38°03' W 122°18'2 3.9
2018-Jun-17 07:14N 38°03' W 122°16'0 0.0
2018-Jun-17 06:49N 38°03' W 122°16'5 5.4
2018-Jun-17 05:49N 38°02' W 122°09'3 8.6
2018-Jun-17 05:30N 38°03' W 122°12'1 1.6
2018-Jun-17 05:00N 38°03' W 122°13'0 0.0
2018-Jun-17 04:30N 38°03' W 122°13'0 0.0
2018-Jun-17 04:00N 38°03' W 122°13'0 0.0
2018-Jun-17 03:30N 38°03' W 122°13'4 0.2
2018-Jun-16 09:56N 38°02' W 122°08'510.7
2018-Jun-16 09:26N 38°04' W 122°15'1 0.6
2018-Jun-16 08:18N 38°03' W 122°16'0 1.0
2018-Jun-16 07:53N 38°04' W 122°15'1 0.1
2018-Jun-16 00:37N 38°03' W 122°16'210.8
2018-Jun-16 00:26N 38°03' W 122°18'510.4
2018-Jun-15 23:59N 38°01' W 122°24'5 9.7
2018-Jun-15 23:30N 37°56' W 122°26'4 7.3
2018-Jun-15 23:00N 37°55' W 122°22'0 1.0
2018-Jun-15 22:30N 37°55' W 122°22'0 0.6
2018-Jun-15 21:59N 37°55' W 122°22'1 1.5
2018-Jun-15 21:30N 37°54' W 122°22'3 6.6
2018-Jun-15 21:00N 37°56' W 122°26'1 1.8
2018-Jun-15 20:30N 37°57' W 122°26'0 1.0
2018-Jun-15 19:59N 37°56' W 122°26'1 2.9
2018-Jun-15 19:30N 37°55' W 122°25'0 0.1
2018-Jun-15 18:59N 37°55' W 122°25'1 1.4
2018-Jun-15 18:27N 37°55' W 122°25'410.1
2018-Jun-15 18:01N 37°51' W 122°23'3 6.5
2018-Jun-15 17:30N 37°49' W 122°19'0 0.0
2018-Jun-15 17:00N 37°49' W 122°19'0 0.0
2018-Jun-15 16:30N 37°49' W 122°19'0 0.0
2018-Jun-15 16:00N 37°49' W 122°19'0 0.0
2018-Jun-15 15:30N 37°49' W 122°19'0 0.0
2018-Jun-15 15:00N 37°49' W 122°19'0 0.0
2018-Jun-15 14:30N 37°49' W 122°19'0 0.0
2018-Jun-15 14:00N 37°49' W 122°19'1 1.9
2018-Jun-15 13:30N 37°49' W 122°20'0 0.1
2018-Jun-15 13:00N 37°49' W 122°20'2 4.6
2018-Jun-15 12:31N 37°48' W 122°23'2 4.9
2018-Jun-15 12:00N 37°49' W 122°20'1 1.6
2018-Jun-15 11:30N 37°49' W 122°19'0 0.0
2018-Jun-15 11:00N 37°49' W 122°19'0 0.0
2018-Jun-15 10:30N 37°49' W 122°19'0 0.0
2018-Jun-15 10:00N 37°49' W 122°19'0 0.0
2018-Jun-15 09:30N 37°49' W 122°19'0 0.0
2018-Jun-15 09:00N 37°49' W 122°19'0 0.0
2018-Jun-15 08:30N 37°49' W 122°19'0 0.0
2018-Jun-15 08:00N 37°49' W 122°19'0 0.0
2018-Jun-15 07:29N 37°49' W 122°19'0 0.0
2018-Jun-15 07:00N 37°49' W 122°19'0 0.0
2018-Jun-15 06:30N 37°49' W 122°19'0 0.0
2018-Jun-15 06:00N 37°49' W 122°19'0 0.0
2018-Jun-15 05:30N 37°49' W 122°19'0 0.0
2018-Jun-15 05:00N 37°49' W 122°19'0 0.0
2018-Jun-15 04:30N 37°49' W 122°19'0 0.0
2018-Jun-15 03:58N 37°49' W 122°19'0 0.0
2018-Jun-15 03:30N 37°49' W 122°19'0 0.0
2018-Jun-15 03:00N 37°49' W 122°19'0 0.0
2018-Jun-15 02:30N 37°49' W 122°19'0 0.0
2018-Jun-15 02:00N 37°49' W 122°19'0 0.0
2018-Jun-15 01:30N 37°49' W 122°19'1 1.2
2018-Jun-15 01:00N 37°49' W 122°19'2 3.6
2018-Jun-15 00:30N 37°48' W 122°18'1 1.4
2018-Jun-15 00:00N 37°48' W 122°19'0 0.4
2018-Jun-14 23:30N 37°48' W 122°19'0 0.3
2018-Jun-14 23:00N 37°48' W 122°19'2 3.2
2018-Jun-14 22:30N 37°49' W 122°19'0 0.0
2018-Jun-14 22:00N 37°49' W 122°19'0 0.0
2018-Jun-14 21:30N 37°49' W 122°19'0 0.0
2018-Jun-14 20:56N 37°49' W 122°19'0 0.0
2018-Jun-14 20:30N 37°49' W 122°19'0 0.0
2018-Jun-14 20:00N 37°49' W 122°19'0 0.0
2018-Jun-14 19:30N 37°49' W 122°19'0 0.0
2018-Jun-14 19:00N 37°49' W 122°19'0 0.0
2018-Jun-14 18:30N 37°49' W 122°19'0 0.0
2018-Jun-14 18:00N 37°49' W 122°19'0 0.0
2018-Jun-14 17:30N 37°49' W 122°19'0 0.0
2018-Jun-14 17:00N 37°49' W 122°19'0 0.0
2018-Jun-14 16:30N 37°49' W 122°19'0 0.0
2018-Jun-14 16:00N 37°49' W 122°19'0 0.0
2018-Jun-14 15:30N 37°49' W 122°19'0 0.0
2018-Jun-14 14:59N 37°49' W 122°19'2 3.3
2018-Jun-14 14:30N 37°48' W 122°19'0 0.8
2018-Jun-14 14:00N 37°48' W 122°20'1 2.0
2018-Jun-14 13:31N 37°48' W 122°21'0 0.4
2018-Jun-14 13:00N 37°48' W 122°21'0 0.7
2018-Jun-14 12:30N 37°48' W 122°20'2 4.9
2018-Jun-14 12:01N 37°48' W 122°17'1 2.8
2018-Jun-14 11:30N 37°48' W 122°19'0 0.1
2018-Jun-14 11:00N 37°48' W 122°19'1 1.6
2018-Jun-14 10:30N 37°48' W 122°20'2 3.4
2018-Jun-14 10:00N 37°49' W 122°19'0 0.0
2018-Jun-14 09:30N 37°49' W 122°19'0 0.0
2018-Jun-14 09:00N 37°49' W 122°19'0 0.0
2018-Jun-14 08:30N 37°49' W 122°19'0 0.0
2018-Jun-14 08:00N 37°49' W 122°19'0 0.0
2018-Jun-14 07:30N 37°49' W 122°19'0 0.0
2018-Jun-14 07:00N 37°49' W 122°19'0 0.0
2018-Jun-14 06:30N 37°49' W 122°19'0 0.0
2018-Jun-14 06:00N 37°49' W 122°19'0 0.0
2018-Jun-14 05:30N 37°49' W 122°19'0 0.0
2018-Jun-14 05:00N 37°49' W 122°19'0 0.0
2018-Jun-14 04:30N 37°49' W 122°19'0 0.0
2018-Jun-14 04:00N 37°49' W 122°19'0 0.0
2018-Jun-14 03:30N 37°49' W 122°19'0 0.0
2018-Jun-14 03:00N 37°49' W 122°19'0 0.0
2018-Jun-14 02:30N 37°49' W 122°19'1 1.1
2018-Jun-14 02:00N 37°49' W 122°19'1 2.9
2018-Jun-14 01:31N 37°48' W 122°18'1 1.2
2018-Jun-14 01:00N 37°48' W 122°18'1 1.5
2018-Jun-14 00:30N 37°48' W 122°19'0 0.3
2018-Jun-14 00:00N 37°48' W 122°18'0 0.0
2018-Jun-13 23:30N 37°48' W 122°18'1 1.5
2018-Jun-13 23:01N 37°48' W 122°19'1 1.8
2018-Jun-13 22:30N 37°49' W 122°20'0 0.1
2018-Jun-13 22:00N 37°49' W 122°20'1 1.7
2018-Jun-13 21:30N 37°49' W 122°19'0 0.3
2018-Jun-13 21:00N 37°49' W 122°19'0 0.0
2018-Jun-13 20:26N 37°49' W 122°19'0 0.0
2018-Jun-13 20:00N 37°49' W 122°19'0 0.0
2018-Jun-13 19:30N 37°49' W 122°19'0 0.0
2018-Jun-13 19:00N 37°49' W 122°19'0 0.0
2018-Jun-13 18:29N 37°49' W 122°19'0 0.0
2018-Jun-13 18:00N 37°49' W 122°19'0 0.0
2018-Jun-13 17:30N 37°49' W 122°19'0 0.0
2018-Jun-13 17:00N 37°49' W 122°19'0 0.0
2018-Jun-13 16:30N 37°49' W 122°19'0 0.0
2018-Jun-13 16:00N 37°49' W 122°19'0 0.0
2018-Jun-13 15:30N 37°49' W 122°19'0 0.0
2018-Jun-13 15:00N 37°49' W 122°19'0 0.0
2018-Jun-13 14:30N 37°49' W 122°19'0 0.0
2018-Jun-13 14:00N 37°49' W 122°19'2 3.4
2018-Jun-13 13:30N 37°48' W 122°19'0 1.0
2018-Jun-13 13:00N 37°48' W 122°18'0 0.2
2018-Jun-13 12:31N 37°48' W 122°18'0 0.5
2018-Jun-13 12:00N 37°48' W 122°18'3 5.2
2018-Jun-13 11:30N 37°48' W 122°21'2 4.7
2018-Jun-13 11:01N 37°49' W 122°19'0 0.0
2018-Jun-13 10:30N 37°49' W 122°19'0 0.0
2018-Jun-13 10:00N 37°49' W 122°19'0 0.0
2018-Jun-13 09:30N 37°49' W 122°19'0 0.0
2018-Jun-13 09:00N 37°49' W 122°19'0 0.0
2018-Jun-13 08:30N 37°49' W 122°19'0 0.0
2018-Jun-13 08:00N 37°49' W 122°19'0 0.0
2018-Jun-13 07:30N 37°49' W 122°19'0 0.0
2018-Jun-13 07:00N 37°49' W 122°19'0 0.0
2018-Jun-13 06:30N 37°49' W 122°19'0 0.0
2018-Jun-13 05:59N 37°49' W 122°19'0 0.0
2018-Jun-13 05:30N 37°49' W 122°19'0 0.0
2018-Jun-13 05:00N 37°49' W 122°19'0 0.0
2018-Jun-13 04:29N 37°49' W 122°19'0 0.0
2018-Jun-13 04:00N 37°49' W 122°19'0 0.0
2018-Jun-13 03:30N 37°49' W 122°19'0 0.0
2018-Jun-13 02:59N 37°49' W 122°19'0 0.0
2018-Jun-13 02:30N 37°49' W 122°19'0 0.0
2018-Jun-13 02:00N 37°49' W 122°19'0 0.0
2018-Jun-13 01:30N 37°49' W 122°19'0 0.0
2018-Jun-13 01:00N 37°49' W 122°19'0 0.0
2018-Jun-13 00:30N 37°49' W 122°19'0 0.0
2018-Jun-12 23:58N 37°49' W 122°19'2 3.6
2018-Jun-12 23:30N 37°48' W 122°19'0 0.2
2018-Jun-12 23:00N 37°48' W 122°19'2 4.0
2018-Jun-12 22:30N 37°48' W 122°21'1 2.1
2018-Jun-12 22:00N 37°48' W 122°22'3 5.5
2018-Jun-12 21:30N 37°48' W 122°19'1 1.3
2018-Jun-12 21:00N 37°48' W 122°20'1 2.9
2018-Jun-12 20:30N 37°49' W 122°19'0 0.4
2018-Jun-12 20:00N 37°49' W 122°19'0 0.0
2018-Jun-12 19:30N 37°49' W 122°19'0 0.0
2018-Jun-12 19:00N 37°49' W 122°19'0 0.0
2018-Jun-12 18:30N 37°49' W 122°19'0 0.0
2018-Jun-12 18:00N 37°49' W 122°19'0 0.0
2018-Jun-12 17:30N 37°49' W 122°19'0 0.0
2018-Jun-12 16:58N 37°49' W 122°19'0 0.0
2018-Jun-12 16:29N 37°49' W 122°19'0 0.0
2018-Jun-12 16:00N 37°49' W 122°19'0 0.0
2018-Jun-12 15:30N 37°49' W 122°19'0 0.0
2018-Jun-12 15:00N 37°49' W 122°19'0 0.0
2018-Jun-12 14:30N 37°49' W 122°19'1 2.2
2018-Jun-12 14:00N 37°49' W 122°20'1 1.3
2018-Jun-12 13:30N 37°48' W 122°21'0 0.2
2018-Jun-12 13:00N 37°48' W 122°21'0 0.3
2018-Jun-12 12:31N 37°48' W 122°21'0 0.0
2018-Jun-12 12:00N 37°48' W 122°21'0 0.0
2018-Jun-12 11:30N 37°48' W 122°21'0 0.0
2018-Jun-12 11:00N 37°48' W 122°21'1 1.2
2018-Jun-12 10:30N 37°49' W 122°20'0 0.8
2018-Jun-12 10:00N 37°49' W 122°19'0 0.8
2018-Jun-12 09:30N 37°49' W 122°20'2 3.9
2018-Jun-12 09:00N 37°48' W 122°18'0 0.1
2018-Jun-12 08:30N 37°48' W 122°18'2 3.0
2018-Jun-12 08:00N 37°48' W 122°20'2 3.1
2018-Jun-12 07:30N 37°49' W 122°19'0 0.0
2018-Jun-12 07:00N 37°49' W 122°19'0 0.0
2018-Jun-12 06:30N 37°49' W 122°19'0 0.0
2018-Jun-12 06:00N 37°49' W 122°19'0 0.0
2018-Jun-12 05:30N 37°49' W 122°19'0 0.0
2018-Jun-12 05:00N 37°49' W 122°19'0 0.0
2018-Jun-12 04:30N 37°49' W 122°19'0 0.0
2018-Jun-12 04:00N 37°49' W 122°19'0 0.0
2018-Jun-12 03:30N 37°49' W 122°19'0 0.0
2018-Jun-12 02:58N 37°49' W 122°19'0 0.0
2018-Jun-12 02:30N 37°49' W 122°19'0 0.0
2018-Jun-12 02:00N 37°49' W 122°19'0 0.0
2018-Jun-12 01:30N 37°49' W 122°19'0 0.0
2018-Jun-12 01:00N 37°49' W 122°19'0 0.0
2018-Jun-12 00:30N 37°49' W 122°19'0 0.0
2018-Jun-12 00:00N 37°49' W 122°19'0 0.0
2018-Jun-11 23:30N 37°49' W 122°19'0 0.0
2018-Jun-11 23:00N 37°49' W 122°19'0 0.0
2018-Jun-11 22:29N 37°49' W 122°19'0 0.0
2018-Jun-11 21:59N 37°49' W 122°19'0 0.0
2018-Jun-11 21:30N 37°49' W 122°19'0 0.0
2018-Jun-11 21:00N 37°49' W 122°19'0 0.0
2018-Jun-11 20:30N 37°49' W 122°19'0 0.0
2018-Jun-11 20:00N 37°49' W 122°19'0 0.0
2018-Jun-11 19:30N 37°49' W 122°19'0 0.0
2018-Jun-11 19:00N 37°49' W 122°19'0 0.0
2018-Jun-11 18:30N 37°49' W 122°19'0 0.0
2018-Jun-11 18:00N 37°49' W 122°19'0 0.0
2018-Jun-11 17:30N 37°49' W 122°19'0 0.0
2018-Jun-11 17:00N 37°49' W 122°19'0 0.0
2018-Jun-11 16:28N 37°49' W 122°19'0 0.0
2018-Jun-11 15:59N 37°49' W 122°19'0 0.0
2018-Jun-11 15:30N 37°49' W 122°19'0 0.0
2018-Jun-11 15:00N 37°49' W 122°19'1 1.8
2018-Jun-11 14:31N 37°49' W 122°20'0 0.0
2018-Jun-11 14:00N 37°49' W 122°20'2 3.5
2018-Jun-11 13:30N 37°48' W 122°21'3 5.4
2018-Jun-11 13:00N 37°48' W 122°18'1 1.0
2018-Jun-11 12:31N 37°48' W 122°17'3 5.4
2018-Jun-11 12:00N 37°48' W 122°21'0 0.5
2018-Jun-11 11:30N 37°48' W 122°21'0 0.0
2018-Jun-11 11:00N 37°48' W 122°21'0 0.3
2018-Jun-11 10:31N 37°48' W 122°20'1 1.6
2018-Jun-11 10:01N 37°48' W 122°20'1 1.9
2018-Jun-11 09:30N 37°49' W 122°20'1 2.6
2018-Jun-11 09:00N 37°49' W 122°19'0 0.0
2018-Jun-11 08:30N 37°49' W 122°19'0 0.0
2018-Jun-11 07:59N 37°49' W 122°19'0 0.0
2018-Jun-11 07:29N 37°49' W 122°19'0 0.0
2018-Jun-11 07:00N 37°49' W 122°19'0 0.0
2018-Jun-11 06:30N 37°49' W 122°19'0 0.0
2018-Jun-11 06:00N 37°49' W 122°19'0 0.0
2018-Jun-11 05:30N 37°49' W 122°19'0 0.0
2018-Jun-11 05:00N 37°49' W 122°19'0 0.0
2018-Jun-11 04:30N 37°49' W 122°19'0 0.0
2018-Jun-11 03:59N 37°49' W 122°19'0 0.0
2018-Jun-11 03:30N 37°49' W 122°19'0 0.0
2018-Jun-11 03:00N 37°49' W 122°19'0 0.0
2018-Jun-11 02:30N 37°49' W 122°19'0 0.0
2018-Jun-11 02:00N 37°49' W 122°19'0 0.0
2018-Jun-11 01:30N 37°49' W 122°19'0 0.0
2018-Jun-11 01:00N 37°49' W 122°19'0 0.0
2018-Jun-11 00:30N 37°49' W 122°19'0 0.0
2018-Jun-11 00:00N 37°49' W 122°19'0 0.0
2018-Jun-10 23:30N 37°49' W 122°19'0 0.0
2018-Jun-10 23:00N 37°49' W 122°19'0 0.0
2018-Jun-10 22:30N 37°49' W 122°19'0 0.0
2018-Jun-10 22:00N 37°49' W 122°19'0 0.0
2018-Jun-10 21:30N 37°49' W 122°19'0 0.0
2018-Jun-10 21:00N 37°49' W 122°19'0 0.0
2018-Jun-10 20:30N 37°49' W 122°19'0 0.0
2018-Jun-10 20:00N 37°49' W 122°19'0 0.0
2018-Jun-10 19:30N 37°49' W 122°19'0 0.0
2018-Jun-10 19:00N 37°49' W 122°19'0 0.0
2018-Jun-10 18:30N 37°49' W 122°19'0 0.0
2018-Jun-10 18:00N 37°49' W 122°19'0 0.0
2018-Jun-10 17:30N 37°49' W 122°19'0 0.0
2018-Jun-10 17:00N 37°49' W 122°19'0 0.5
2018-Jun-10 16:30N 37°49' W 122°19'4 8.3
2018-Jun-10 16:00N 37°52' W 122°23'4 8.0
2018-Jun-10 15:30N 37°55' W 122°25'3 5.8
2018-Jun-10 15:00N 37°54' W 122°22'1 1.6
2018-Jun-10 14:26N 37°55' W 122°22'0 0.1
2018-Jun-10 13:29N 37°55' W 122°22'2 4.8
2018-Jun-10 12:58N 37°55' W 122°25'4 9.6
2018-Jun-10 12:30N 37°60' W 122°25'611.3
2018-Jun-10 12:00N 38°03' W 122°19'6 0.8
2018-Jun-10 04:16N 38°03' W 122°11'4 9.4
2018-Jun-10 03:47N 38°03' W 122°17'0 0.7
2018-Jun-10 03:30N 38°04' W 122°17'1 0.8
2018-Jun-10 02:25N 38°03' W 122°16'1 3.3
2018-Jun-10 02:00N 38°04' W 122°14'2 3.6
2018-Jun-10 01:30N 38°03' W 122°16'510.0
2018-Jun-10 01:00N 38°02' W 122°22'611.1
2018-Jun-10 00:30N 37°57' W 122°26'611.2
2018-Jun-10 00:00N 37°51' W 122°23'4 8.4
2018-Jun-09 23:31N 37°49' W 122°19'1 2.5
2018-Jun-09 23:00N 37°48' W 122°19'0 1.0
2018-Jun-09 22:30N 37°48' W 122°19'1 2.5
2018-Jun-09 22:00N 37°48' W 122°17'1 3.0
2018-Jun-09 21:30N 37°48' W 122°19'2 4.3
2018-Jun-09 21:00N 37°48' W 122°22'3 5.4
2018-Jun-09 20:30N 37°49' W 122°19'0 0.0
2018-Jun-09 20:00N 37°49' W 122°19'0 0.0
2018-Jun-09 19:30N 37°49' W 122°19'0 0.0
2018-Jun-09 19:00N 37°49' W 122°19'0 0.0
2018-Jun-09 18:30N 37°49' W 122°19'0 0.0
2018-Jun-09 17:59N 37°49' W 122°19'2 4.0
2018-Jun-09 17:31N 37°48' W 122°21'3 5.7
2018-Jun-09 17:00N 37°48' W 122°17'2 3.1
2018-Jun-09 16:31N 37°47' W 122°15'0 0.5
2018-Jun-09 16:01N 37°47' W 122°15'0 0.0
2018-Jun-09 15:31N 37°47' W 122°15'2 1.7
2018-Jun-09 14:30N 37°48' W 122°17'0 0.0
2018-Jun-09 14:00N 37°48' W 122°17'2 3.3
2018-Jun-09 13:30N 37°48' W 122°19'0 0.7
2018-Jun-09 13:00N 37°48' W 122°19'2 3.3
2018-Jun-09 12:31N 37°48' W 122°17'1 3.0
2018-Jun-09 12:00N 37°48' W 122°19'2 4.9
2018-Jun-09 11:30N 37°48' W 122°22'1 1.3
2018-Jun-09 11:00N 37°48' W 122°23'2 3.5
2018-Jun-09 10:30N 37°48' W 122°21'1 1.9
2018-Jun-09 10:00N 37°49' W 122°20'1 1.8
2018-Jun-09 09:30N 37°49' W 122°19'0 0.0
2018-Jun-09 09:00N 37°49' W 122°19'0 0.0
2018-Jun-09 08:30N 37°49' W 122°19'0 0.0
2018-Jun-09 08:01N 37°49' W 122°19'0 0.0
2018-Jun-09 07:30N 37°49' W 122°19'0 0.0
2018-Jun-09 07:00N 37°49' W 122°19'0 0.0
2018-Jun-09 06:31N 37°49' W 122°19'0 0.0
2018-Jun-09 06:00N 37°49' W 122°19'0 0.0
2018-Jun-09 05:30N 37°49' W 122°19'0 0.0
2018-Jun-09 05:00N 37°49' W 122°19'0 0.0
2018-Jun-09 04:22N 37°49' W 122°19'0 0.0
2018-Jun-09 04:00N 37°49' W 122°19'2 3.2
2018-Jun-09 03:30N 37°48' W 122°20'2 4.0
2018-Jun-09 03:00N 37°48' W 122°18'1 1.8
2018-Jun-09 02:30N 37°48' W 122°19'0 0.1
2018-Jun-09 02:01N 37°48' W 122°19'0 0.0
2018-Jun-09 01:30N 37°48' W 122°19'0 0.0
2018-Jun-09 01:01N 37°48' W 122°19'0 0.0
2018-Jun-09 00:30N 37°48' W 122°19'0 0.0
2018-Jun-09 00:01N 37°48' W 122°19'0 0.0
2018-Jun-08 23:30N 37°48' W 122°19'1 2.9
2018-Jun-08 23:01N 37°48' W 122°17'2 3.6
2018-Jun-08 22:30N 37°48' W 122°20'1 2.2
2018-Jun-08 22:00N 37°48' W 122°21'1 2.9
2018-Jun-08 21:30N 37°48' W 122°19'0 0.0
2018-Jun-08 21:00N 37°48' W 122°19'0 0.0
2018-Jun-08 20:31N 37°48' W 122°19'0 0.0
2018-Jun-08 20:00N 37°48' W 122°19'1 2.1
2018-Jun-08 19:31N 37°48' W 122°18'0 0.1
2018-Jun-08 19:00N 37°48' W 122°18'0 0.2
2018-Jun-08 18:31N 37°48' W 122°18'0 0.0
2018-Jun-08 18:00N 37°48' W 122°18'2 4.1
2018-Jun-08 17:30N 37°48' W 122°20'2 3.2
2018-Jun-08 17:01N 37°49' W 122°19'0 0.0
2018-Jun-08 16:30N 37°49' W 122°19'0 0.0
2018-Jun-08 16:00N 37°49' W 122°19'0 0.0
2018-Jun-08 15:29N 37°49' W 122°19'0 0.0
2018-Jun-08 15:00N 37°49' W 122°19'0 0.0
2018-Jun-08 14:30N 37°49' W 122°19'0 0.0
2018-Jun-08 13:58N 37°49' W 122°19'0 0.0
2018-Jun-08 13:30N 37°49' W 122°19'0 0.0
2018-Jun-08 12:59N 37°49' W 122°19'0 0.0
2018-Jun-08 12:30N 37°49' W 122°19'0 0.0
2018-Jun-08 12:00N 37°49' W 122°19'0 0.0
2018-Jun-08 11:30N 37°49' W 122°19'0 0.0
2018-Jun-08 10:59N 37°49' W 122°19'1 1.4
2018-Jun-08 10:30N 37°49' W 122°19'0 0.5
2018-Jun-08 10:00N 37°49' W 122°20'0 0.1
2018-Jun-08 09:30N 37°49' W 122°20'1 1.6
2018-Jun-08 09:00N 37°48' W 122°20'1 1.4
2018-Jun-08 08:31N 37°48' W 122°19'1 1.9
2018-Jun-08 08:00N 37°48' W 122°17'3 5.5
2018-Jun-08 07:30N 37°48' W 122°21'2 4.2
2018-Jun-08 07:00N 37°49' W 122°19'0 0.1
2018-Jun-08 06:30N 37°49' W 122°19'0 0.0
2018-Jun-08 05:57N 37°49' W 122°19'0 0.0
2018-Jun-08 05:30N 37°49' W 122°19'  
Track history (hours):
 
Tides and Currents Weather Stations Pressure Air Temp Water Temp Dewpoint Dewpoint Depression Visibility Wind Speed Wind Dir Waves Ship Positions

Patricia Ann

Owner: AmNav Maritime Corporation, Oakland, CA. More information available from US FCC via Universal Licensing System and Coast Guard Vessel Documentation Center.

Last reported at 2018-Jun-18 05:28 UTC. Time now 2018-Jun-18 05:34 UTC.
Position N 37°49' W 122°19'.

Length 24 m; draft 4.9 m.

Type: Tug. MMSI: 367330510.

Date/timePositionNaut miles runAvg speedWind from/ knotsBaromVisibWave heightAir tempDewpointWater temp
2018-Jun-18 05:28N 37°49' W 122°19'0 0.0
2018-Jun-18 05:00N 37°49' W 122°19'0 0.0
2018-Jun-18 04:30N 37°49' W 122°19'0 0.0
2018-Jun-18 03:59N 37°49' W 122°19'0 0.0
2018-Jun-18 03:30N 37°49' W 122°19'0 0.0
2018-Jun-18 03:00N 37°49' W 122°19'0 0.0
2018-Jun-18 02:30N 37°49' W 122°19'0 0.0
2018-Jun-18 02:00N 37°49' W 122°19'2 4.1
2018-Jun-18 01:30N 37°49' W 122°21'5 9.3
2018-Jun-18 01:00N 37°53' W 122°25'2 3.1
2018-Jun-18 00:31N 37°54' W 122°24'2 3.6
2018-Jun-18 00:00N 37°54' W 122°22'1 1.4
2018-Jun-17 23:30N 37°54' W 122°23'4 8.0
2018-Jun-17 22:59N 37°57' W 122°26'7 8.7
2018-Jun-17 22:08N 38°03' W 122°19'1 9.0
2018-Jun-17 22:00N 38°03' W 122°18'0 0.0
2018-Jun-17 07:40N 38°03' W 122°18'2 3.9
2018-Jun-17 07:14N 38°03' W 122°16'0 0.0
2018-Jun-17 06:49N 38°03' W 122°16'5 5.4
2018-Jun-17 05:49N 38°02' W 122°09'3 8.6
2018-Jun-17 05:30N 38°03' W 122°12'1 1.6
2018-Jun-17 05:00N 38°03' W 122°13'0 0.0
2018-Jun-17 04:30N 38°03' W 122°13'0 0.0
2018-Jun-17 04:00N 38°03' W 122°13'0 0.0
2018-Jun-17 03:30N 38°03' W 122°13'4 0.2
2018-Jun-16 09:56N 38°02' W 122°08'510.7
2018-Jun-16 09:26N 38°04' W 122°15'1 0.6
2018-Jun-16 08:18N 38°03' W 122°16'0 1.0
2018-Jun-16 07:53N 38°04' W 122°15'1 0.1
2018-Jun-16 00:37N 38°03' W 122°16'210.8
2018-Jun-16 00:26N 38°03' W 122°18'510.4
2018-Jun-15 23:59N 38°01' W 122°24'5 9.7
2018-Jun-15 23:30N 37°56' W 122°26'4 7.3
2018-Jun-15 23:00N 37°55' W 122°22'0 1.0
2018-Jun-15 22:30N 37°55' W 122°22'0 0.6
2018-Jun-15 21:59N 37°55' W 122°22'1 1.5
2018-Jun-15 21:30N 37°54' W 122°22'3 6.6
2018-Jun-15 21:00N 37°56' W 122°26'1 1.8
2018-Jun-15 20:30N 37°57' W 122°26'0 1.0
2018-Jun-15 19:59N 37°56' W 122°26'1 2.9
2018-Jun-15 19:30N 37°55' W 122°25'0 0.1
2018-Jun-15 18:59N 37°55' W 122°25'1 1.4
2018-Jun-15 18:27N 37°55' W 122°25'410.1
2018-Jun-15 18:01N 37°51' W 122°23'3 6.5
2018-Jun-15 17:30N 37°49' W 122°19'0 0.0
2018-Jun-15 17:00N 37°49' W 122°19'0 0.0
2018-Jun-15 16:30N 37°49' W 122°19'0 0.0
2018-Jun-15 16:00N 37°49' W 122°19'0 0.0
2018-Jun-15 15:30N 37°49' W 122°19'0 0.0
2018-Jun-15 15:00N 37°49' W 122°19'0 0.0
2018-Jun-15 14:30N 37°49' W 122°19'0 0.0
2018-Jun-15 14:00N 37°49' W 122°19'1 1.9
2018-Jun-15 13:30N 37°49' W 122°20'0 0.1
2018-Jun-15 13:00N 37°49' W 122°20'2 4.6
2018-Jun-15 12:31N 37°48' W 122°23'2 4.9
2018-Jun-15 12:00N 37°49' W 122°20'1 1.6
2018-Jun-15 11:30N 37°49' W 122°19'0 0.0
2018-Jun-15 11:00N 37°49' W 122°19'0 0.0
2018-Jun-15 10:30N 37°49' W 122°19'0 0.0
2018-Jun-15 10:00N 37°49' W 122°19'0 0.0
2018-Jun-15 09:30N 37°49' W 122°19'0 0.0
2018-Jun-15 09:00N 37°49' W 122°19'0 0.0
2018-Jun-15 08:30N 37°49' W 122°19'0 0.0
2018-Jun-15 08:00N 37°49' W 122°19'0 0.0
2018-Jun-15 07:29N 37°49' W 122°19'0 0.0
2018-Jun-15 07:00N 37°49' W 122°19'0 0.0
2018-Jun-15 06:30N 37°49' W 122°19'0 0.0
2018-Jun-15 06:00N 37°49' W 122°19'0 0.0
2018-Jun-15 05:30N 37°49' W 122°19'0 0.0
2018-Jun-15 05:00N 37°49' W 122°19'0 0.0
2018-Jun-15 04:30N 37°49' W 122°19'0 0.0
2018-Jun-15 03:58N 37°49' W 122°19'0 0.0
2018-Jun-15 03:30N 37°49' W 122°19'0 0.0
2018-Jun-15 03:00N 37°49' W 122°19'0 0.0
2018-Jun-15 02:30N 37°49' W 122°19'0 0.0
2018-Jun-15 02:00N 37°49' W 122°19'0 0.0
2018-Jun-15 01:30N 37°49' W 122°19'1 1.2
2018-Jun-15 01:00N 37°49' W 122°19'2 3.6
2018-Jun-15 00:30N 37°48' W 122°18'1 1.4
2018-Jun-15 00:00N 37°48' W 122°19'0 0.4
2018-Jun-14 23:30N 37°48' W 122°19'0 0.3
2018-Jun-14 23:00N 37°48' W 122°19'2 3.2
2018-Jun-14 22:30N 37°49' W 122°19'0 0.0
2018-Jun-14 22:00N 37°49' W 122°19'0 0.0
2018-Jun-14 21:30N 37°49' W 122°19'0 0.0
2018-Jun-14 20:56N 37°49' W 122°19'0 0.0
2018-Jun-14 20:30N 37°49' W 122°19'0 0.0
2018-Jun-14 20:00N 37°49' W 122°19'0 0.0
2018-Jun-14 19:30N 37°49' W 122°19'0 0.0
2018-Jun-14 19:00N 37°49' W 122°19'0 0.0
2018-Jun-14 18:30N 37°49' W 122°19'0 0.0
2018-Jun-14 18:00N 37°49' W 122°19'0 0.0
2018-Jun-14 17:30N 37°49' W 122°19'0 0.0
2018-Jun-14 17:00N 37°49' W 122°19'0 0.0
2018-Jun-14 16:30N 37°49' W 122°19'0 0.0
2018-Jun-14 16:00N 37°49' W 122°19'0 0.0
2018-Jun-14 15:30N 37°49' W 122°19'0 0.0
2018-Jun-14 14:59N 37°49' W 122°19'2 3.3
2018-Jun-14 14:30N 37°48' W 122°19'0 0.8
2018-Jun-14 14:00N 37°48' W 122°20'1 2.0
2018-Jun-14 13:31N 37°48' W 122°21'0 0.4
2018-Jun-14 13:00N 37°48' W 122°21'0 0.7
2018-Jun-14 12:30N 37°48' W 122°20'2 4.9
2018-Jun-14 12:01N 37°48' W 122°17'1 2.8
2018-Jun-14 11:30N 37°48' W 122°19'0 0.1
2018-Jun-14 11:00N 37°48' W 122°19'1 1.6
2018-Jun-14 10:30N 37°48' W 122°20'2 3.4
2018-Jun-14 10:00N 37°49' W 122°19'0 0.0
2018-Jun-14 09:30N 37°49' W 122°19'0 0.0
2018-Jun-14 09:00N 37°49' W 122°19'0 0.0
2018-Jun-14 08:30N 37°49' W 122°19'0 0.0
2018-Jun-14 08:00N 37°49' W 122°19'0 0.0
2018-Jun-14 07:30N 37°49' W 122°19'0 0.0
2018-Jun-14 07:00N 37°49' W 122°19'0 0.0
2018-Jun-14 06:30N 37°49' W 122°19'0 0.0
2018-Jun-14 06:00N 37°49' W 122°19'0 0.0
2018-Jun-14 05:30N 37°49' W 122°19'0 0.0
2018-Jun-14 05:00N 37°49' W 122°19'0 0.0
2018-Jun-14 04:30N 37°49' W 122°19'0 0.0
2018-Jun-14 04:00N 37°49' W 122°19'0 0.0
2018-Jun-14 03:30N 37°49' W 122°19'0 0.0
2018-Jun-14 03:00N 37°49' W 122°19'0 0.0
2018-Jun-14 02:30N 37°49' W 122°19'1 1.1
2018-Jun-14 02:00N 37°49' W 122°19'1 2.9
2018-Jun-14 01:31N 37°48' W 122°18'1 1.2
2018-Jun-14 01:00N 37°48' W 122°18'1 1.5
2018-Jun-14 00:30N 37°48' W 122°19'0 0.3
2018-Jun-14 00:00N 37°48' W 122°18'0 0.0
2018-Jun-13 23:30N 37°48' W 122°18'1 1.5
2018-Jun-13 23:01N 37°48' W 122°19'1 1.8
2018-Jun-13 22:30N 37°49' W 122°20'0 0.1
2018-Jun-13 22:00N 37°49' W 122°20'1 1.7
2018-Jun-13 21:30N 37°49' W 122°19'0 0.3
2018-Jun-13 21:00N 37°49' W 122°19'0 0.0
2018-Jun-13 20:26N 37°49' W 122°19'0 0.0
2018-Jun-13 20:00N 37°49' W 122°19'0 0.0
2018-Jun-13 19:30N 37°49' W 122°19'0 0.0
2018-Jun-13 19:00N 37°49' W 122°19'0 0.0
2018-Jun-13 18:29N 37°49' W 122°19'0 0.0
2018-Jun-13 18:00N 37°49' W 122°19'0 0.0
2018-Jun-13 17:30N 37°49' W 122°19'0 0.0
2018-Jun-13 17:00N 37°49' W 122°19'0 0.0
2018-Jun-13 16:30N 37°49' W 122°19'0 0.0
2018-Jun-13 16:00N 37°49' W 122°19'0 0.0
2018-Jun-13 15:30N 37°49' W 122°19'0 0.0
2018-Jun-13 15:00N 37°49' W 122°19'0 0.0
2018-Jun-13 14:30N 37°49' W 122°19'0 0.0
2018-Jun-13 14:00N 37°49' W 122°19'2 3.4
2018-Jun-13 13:30N 37°48' W 122°19'0 1.0
2018-Jun-13 13:00N 37°48' W 122°18'0 0.2
2018-Jun-13 12:31N 37°48' W 122°18'0 0.5
2018-Jun-13 12:00N 37°48' W 122°18'3 5.2
2018-Jun-13 11:30N 37°48' W 122°21'2 4.7
2018-Jun-13 11:01N 37°49' W 122°19'0 0.0
2018-Jun-13 10:30N 37°49' W 122°19'0 0.0
2018-Jun-13 10:00N 37°49' W 122°19'0 0.0
2018-Jun-13 09:30N 37°49' W 122°19'0 0.0
2018-Jun-13 09:00N 37°49' W 122°19'0 0.0
2018-Jun-13 08:30N 37°49' W 122°19'0 0.0
2018-Jun-13 08:00N 37°49' W 122°19'0 0.0
2018-Jun-13 07:30N 37°49' W 122°19'0 0.0
2018-Jun-13 07:00N 37°49' W 122°19'0 0.0
2018-Jun-13 06:30N 37°49' W 122°19'0 0.0
2018-Jun-13 05:59N 37°49' W 122°19'0 0.0
2018-Jun-13 05:30N 37°49' W 122°19'0 0.0
2018-Jun-13 05:00N 37°49' W 122°19'0 0.0
2018-Jun-13 04:29N 37°49' W 122°19'0 0.0
2018-Jun-13 04:00N 37°49' W 122°19'0 0.0
2018-Jun-13 03:30N 37°49' W 122°19'0 0.0
2018-Jun-13 02:59N 37°49' W 122°19'0 0.0
2018-Jun-13 02:30N 37°49' W 122°19'0 0.0
2018-Jun-13 02:00N 37°49' W 122°19'0 0.0
2018-Jun-13 01:30N 37°49' W 122°19'0 0.0
2018-Jun-13 01:00N 37°49' W 122°19'0 0.0
2018-Jun-13 00:30N 37°49' W 122°19'0 0.0
2018-Jun-12 23:58N 37°49' W 122°19'2 3.6
2018-Jun-12 23:30N 37°48' W 122°19'0 0.2
2018-Jun-12 23:00N 37°48' W 122°19'2 4.0
2018-Jun-12 22:30N 37°48' W 122°21'1 2.1
2018-Jun-12 22:00N 37°48' W 122°22'3 5.5
2018-Jun-12 21:30N 37°48' W 122°19'1 1.3
2018-Jun-12 21:00N 37°48' W 122°20'1 2.9
2018-Jun-12 20:30N 37°49' W 122°19'0 0.4
2018-Jun-12 20:00N 37°49' W 122°19'0 0.0
2018-Jun-12 19:30N 37°49' W 122°19'0 0.0
2018-Jun-12 19:00N 37°49' W 122°19'0 0.0
2018-Jun-12 18:30N 37°49' W 122°19'0 0.0
2018-Jun-12 18:00N 37°49' W 122°19'0 0.0
2018-Jun-12 17:30N 37°49' W 122°19'0 0.0
2018-Jun-12 16:58N 37°49' W 122°19'0 0.0
2018-Jun-12 16:29N 37°49' W 122°19'0 0.0
2018-Jun-12 16:00N 37°49' W 122°19'0 0.0
2018-Jun-12 15:30N 37°49' W 122°19'0 0.0
2018-Jun-12 15:00N 37°49' W 122°19'0 0.0
2018-Jun-12 14:30N 37°49' W 122°19'1 2.2
2018-Jun-12 14:00N 37°49' W 122°20'1 1.3
2018-Jun-12 13:30N 37°48' W 122°21'0 0.2
2018-Jun-12 13:00N 37°48' W 122°21'0 0.3
2018-Jun-12 12:31N 37°48' W 122°21'0 0.0
2018-Jun-12 12:00N 37°48' W 122°21'0 0.0
2018-Jun-12 11:30N 37°48' W 122°21'0 0.0
2018-Jun-12 11:00N 37°48' W 122°21'1 1.2
2018-Jun-12 10:30N 37°49' W 122°20'0 0.8
2018-Jun-12 10:00N 37°49' W 122°19'0 0.8
2018-Jun-12 09:30N 37°49' W 122°20'2 3.9
2018-Jun-12 09:00N 37°48' W 122°18'0 0.1
2018-Jun-12 08:30N 37°48' W 122°18'2 3.0
2018-Jun-12 08:00N 37°48' W 122°20'2 3.1
2018-Jun-12 07:30N 37°49' W 122°19'0 0.0
2018-Jun-12 07:00N 37°49' W 122°19'0 0.0
2018-Jun-12 06:30N 37°49' W 122°19'0 0.0
2018-Jun-12 06:00N 37°49' W 122°19'0 0.0
2018-Jun-12 05:30N 37°49' W 122°19'0 0.0
2018-Jun-12 05:00N 37°49' W 122°19'0 0.0
2018-Jun-12 04:30N 37°49' W 122°19'0 0.0
2018-Jun-12 04:00N 37°49' W 122°19'0 0.0
2018-Jun-12 03:30N 37°49' W 122°19'0 0.0
2018-Jun-12 02:58N 37°49' W 122°19'0 0.0
2018-Jun-12 02:30N 37°49' W 122°19'0 0.0
2018-Jun-12 02:00N 37°49' W 122°19'0 0.0
2018-Jun-12 01:30N 37°49' W 122°19'0 0.0
2018-Jun-12 01:00N 37°49' W 122°19'0 0.0
2018-Jun-12 00:30N 37°49' W 122°19'0 0.0
2018-Jun-12 00:00N 37°49' W 122°19'0 0.0
2018-Jun-11 23:30N 37°49' W 122°19'0 0.0
2018-Jun-11 23:00N 37°49' W 122°19'0 0.0
2018-Jun-11 22:29N 37°49' W 122°19'0 0.0
2018-Jun-11 21:59N 37°49' W 122°19'0 0.0
2018-Jun-11 21:30N 37°49' W 122°19'0 0.0
2018-Jun-11 21:00N 37°49' W 122°19'0 0.0
2018-Jun-11 20:30N 37°49' W 122°19'0 0.0
2018-Jun-11 20:00N 37°49' W 122°19'0 0.0
2018-Jun-11 19:30N 37°49' W 122°19'0 0.0
2018-Jun-11 19:00N 37°49' W 122°19'0 0.0
2018-Jun-11 18:30N 37°49' W 122°19'0 0.0
2018-Jun-11 18:00N 37°49' W 122°19'0 0.0
2018-Jun-11 17:30N 37°49' W 122°19'0 0.0
2018-Jun-11 17:00N 37°49' W 122°19'0 0.0
2018-Jun-11 16:28N 37°49' W 122°19'0 0.0
2018-Jun-11 15:59N 37°49' W 122°19'0 0.0
2018-Jun-11 15:30N 37°49' W 122°19'0 0.0
2018-Jun-11 15:00N 37°49' W 122°19'1 1.8
2018-Jun-11 14:31N 37°49' W 122°20'0 0.0
2018-Jun-11 14:00N 37°49' W 122°20'2 3.5
2018-Jun-11 13:30N 37°48' W 122°21'3 5.4
2018-Jun-11 13:00N 37°48' W 122°18'1 1.0
2018-Jun-11 12:31N 37°48' W 122°17'3 5.4
2018-Jun-11 12:00N 37°48' W 122°21'0 0.5
2018-Jun-11 11:30N 37°48' W 122°21'0 0.0
2018-Jun-11 11:00N 37°48' W 122°21'0 0.3
2018-Jun-11 10:31N 37°48' W 122°20'1 1.6
2018-Jun-11 10:01N 37°48' W 122°20'1 1.9
2018-Jun-11 09:30N 37°49' W 122°20'1 2.6
2018-Jun-11 09:00N 37°49' W 122°19'0 0.0
2018-Jun-11 08:30N 37°49' W 122°19'0 0.0
2018-Jun-11 07:59N 37°49' W 122°19'0 0.0
2018-Jun-11 07:29N 37°49' W 122°19'0 0.0
2018-Jun-11 07:00N 37°49' W 122°19'0 0.0
2018-Jun-11 06:30N 37°49' W 122°19'0 0.0
2018-Jun-11 06:00N 37°49' W 122°19'0 0.0
2018-Jun-11 05:30N 37°49' W 122°19'0 0.0
2018-Jun-11 05:00N 37°49' W 122°19'0 0.0
2018-Jun-11 04:30N 37°49' W 122°19'0 0.0
2018-Jun-11 03:59N 37°49' W 122°19'0 0.0
2018-Jun-11 03:30N 37°49' W 122°19'0 0.0
2018-Jun-11 03:00N 37°49' W 122°19'0 0.0
2018-Jun-11 02:30N 37°49' W 122°19'0 0.0
2018-Jun-11 02:00N 37°49' W 122°19'0 0.0
2018-Jun-11 01:30N 37°49' W 122°19'0 0.0
2018-Jun-11 01:00N 37°49' W 122°19'0 0.0
2018-Jun-11 00:30N 37°49' W 122°19'0 0.0
2018-Jun-11 00:00N 37°49' W 122°19'0 0.0
2018-Jun-10 23:30N 37°49' W 122°19'0 0.0
2018-Jun-10 23:00N 37°49' W 122°19'0 0.0
2018-Jun-10 22:30N 37°49' W 122°19'0 0.0
2018-Jun-10 22:00N 37°49' W 122°19'0 0.0
2018-Jun-10 21:30N 37°49' W 122°19'0 0.0
2018-Jun-10 21:00N 37°49' W 122°19'0 0.0
2018-Jun-10 20:30N 37°49' W 122°19'0 0.0
2018-Jun-10 20:00N 37°49' W 122°19'0 0.0
2018-Jun-10 19:30N 37°49' W 122°19'0 0.0
2018-Jun-10 19:00N 37°49' W 122°19'0 0.0
2018-Jun-10 18:30N 37°49' W 122°19'0 0.0
2018-Jun-10 18:00N 37°49' W 122°19'0 0.0
2018-Jun-10 17:30N 37°49' W 122°19'0 0.0
2018-Jun-10 17:00N 37°49' W 122°19'0 0.5
2018-Jun-10 16:30N 37°49' W 122°19'4 8.3
2018-Jun-10 16:00N 37°52' W 122°23'4 8.0
2018-Jun-10 15:30N 37°55' W 122°25'3 5.8
2018-Jun-10 15:00N 37°54' W 122°22'1 1.6
2018-Jun-10 14:26N 37°55' W 122°22'0 0.1
2018-Jun-10 13:29N 37°55' W 122°22'2 4.8
2018-Jun-10 12:58N 37°55' W 122°25'4 9.6
2018-Jun-10 12:30N 37°60' W 122°25'611.3
2018-Jun-10 12:00N 38°03' W 122°19'6 0.8
2018-Jun-10 04:16N 38°03' W 122°11'4 9.4
2018-Jun-10 03:47N 38°03' W 122°17'0 0.7
2018-Jun-10 03:30N 38°04' W 122°17'1 0.8
2018-Jun-10 02:25N 38°03' W 122°16'1 3.3
2018-Jun-10 02:00N 38°04' W 122°14'2 3.6
2018-Jun-10 01:30N 38°03' W 122°16'510.0
2018-Jun-10 01:00N 38°02' W 122°22'611.1
2018-Jun-10 00:30N 37°57' W 122°26'611.2
2018-Jun-10 00:00N 37°51' W 122°23'4 8.4
2018-Jun-09 23:31N 37°49' W 122°19'1 2.5
2018-Jun-09 23:00N 37°48' W 122°19'0 1.0
2018-Jun-09 22:30N 37°48' W 122°19'1 2.5
2018-Jun-09 22:00N 37°48' W 122°17'1 3.0
2018-Jun-09 21:30N 37°48' W 122°19'2 4.3
2018-Jun-09 21:00N 37°48' W 122°22'3 5.4
2018-Jun-09 20:30N 37°49' W 122°19'0 0.0
2018-Jun-09 20:00N 37°49' W 122°19'0 0.0
2018-Jun-09 19:30N 37°49' W 122°19'0 0.0
2018-Jun-09 19:00N 37°49' W 122°19'0 0.0
2018-Jun-09 18:30N 37°49' W 122°19'0 0.0
2018-Jun-09 17:59N 37°49' W 122°19'2 4.0
2018-Jun-09 17:31N 37°48' W 122°21'3 5.7
2018-Jun-09 17:00N 37°48' W 122°17'2 3.1
2018-Jun-09 16:31N 37°47' W 122°15'0 0.5
2018-Jun-09 16:01N 37°47' W 122°15'0 0.0
2018-Jun-09 15:31N 37°47' W 122°15'2 1.7
2018-Jun-09 14:30N 37°48' W 122°17'0 0.0
2018-Jun-09 14:00N 37°48' W 122°17'2 3.3
2018-Jun-09 13:30N 37°48' W 122°19'0 0.7
2018-Jun-09 13:00N 37°48' W 122°19'2 3.3
2018-Jun-09 12:31N 37°48' W 122°17'1 3.0
2018-Jun-09 12:00N 37°48' W 122°19'2 4.9
2018-Jun-09 11:30N 37°48' W 122°22'1 1.3
2018-Jun-09 11:00N 37°48' W 122°23'2 3.5
2018-Jun-09 10:30N 37°48' W 122°21'1 1.9
2018-Jun-09 10:00N 37°49' W 122°20'1 1.8
2018-Jun-09 09:30N 37°49' W 122°19'0 0.0
2018-Jun-09 09:00N 37°49' W 122°19'0 0.0
2018-Jun-09 08:30N 37°49' W 122°19'0 0.0
2018-Jun-09 08:01N 37°49' W 122°19'0 0.0
2018-Jun-09 07:30N 37°49' W 122°19'0 0.0
2018-Jun-09 07:00N 37°49' W 122°19'0 0.0
2018-Jun-09 06:31N 37°49' W 122°19'0 0.0
2018-Jun-09 06:00N 37°49' W 122°19'0 0.0
2018-Jun-09 05:30N 37°49' W 122°19'0 0.0
2018-Jun-09 05:00N 37°49' W 122°19'0 0.0
2018-Jun-09 04:22N 37°49' W 122°19'0 0.0
2018-Jun-09 04:00N 37°49' W 122°19'2 3.2
2018-Jun-09 03:30N 37°48' W 122°20'2 4.0
2018-Jun-09 03:00N 37°48' W 122°18'1 1.8
2018-Jun-09 02:30N 37°48' W 122°19'0 0.1
2018-Jun-09 02:01N 37°48' W 122°19'0 0.0
2018-Jun-09 01:30N 37°48' W 122°19'0 0.0
2018-Jun-09 01:01N 37°48' W 122°19'0 0.0
2018-Jun-09 00:30N 37°48' W 122°19'0 0.0
2018-Jun-09 00:01N 37°48' W 122°19'0 0.0
2018-Jun-08 23:30N 37°48' W 122°19'1 2.9
2018-Jun-08 23:01N 37°48' W 122°17'2 3.6
2018-Jun-08 22:30N 37°48' W 122°20'1 2.2
2018-Jun-08 22:00N 37°48' W 122°21'1 2.9
2018-Jun-08 21:30N 37°48' W 122°19'0 0.0
2018-Jun-08 21:00N 37°48' W 122°19'0 0.0
2018-Jun-08 20:31N 37°48' W 122°19'0 0.0
2018-Jun-08 20:00N 37°48' W 122°19'1 2.1
2018-Jun-08 19:31N 37°48' W 122°18'0 0.1
2018-Jun-08 19:00N 37°48' W 122°18'0 0.2
2018-Jun-08 18:31N 37°48' W 122°18'0 0.0
2018-Jun-08 18:00N 37°48' W 122°18'2 4.1
2018-Jun-08 17:30N 37°48' W 122°20'2 3.2
2018-Jun-08 17:01N 37°49' W 122°19'0 0.0
2018-Jun-08 16:30N 37°49' W 122°19'0 0.0
2018-Jun-08 16:00N 37°49' W 122°19'0 0.0
2018-Jun-08 15:29N 37°49' W 122°19'0 0.0
2018-Jun-08 15:00N 37°49' W 122°19'0 0.0
2018-Jun-08 14:30N 37°49' W 122°19'0 0.0
2018-Jun-08 13:58N 37°49' W 122°19'0 0.0
2018-Jun-08 13:30N 37°49' W 122°19'0 0.0
2018-Jun-08 12:59N 37°49' W 122°19'0 0.0
2018-Jun-08 12:30N 37°49' W 122°19'0 0.0
2018-Jun-08 12:00N 37°49' W 122°19'0 0.0
2018-Jun-08 11:30N 37°49' W 122°19'0 0.0
2018-Jun-08 10:59N 37°49' W 122°19'1 1.4
2018-Jun-08 10:30N 37°49' W 122°19'0 0.5
2018-Jun-08 10:00N 37°49' W 122°20'0 0.1
2018-Jun-08 09:30N 37°49' W 122°20'1 1.6
2018-Jun-08 09:00N 37°48' W 122°20'1 1.4
2018-Jun-08 08:31N 37°48' W 122°19'1 1.9
2018-Jun-08 08:00N 37°48' W 122°17'3 5.5
2018-Jun-08 07:30N 37°48' W 122°21'2 4.2
2018-Jun-08 07:00N 37°49' W 122°19'0 0.1
2018-Jun-08 06:30N 37°49' W 122°19'0 0.0
2018-Jun-08 05:57N 37°49' W 122°19'0 0.0
2018-Jun-08 05:30N 37°49' W 122°19'  

Dump ship's entire track history